createdAt,value
2019-03-03T00:00:10.362Z,95640.09
2019-03-03T00:02:58.607Z,95638.88
2019-03-03T00:05:47.068Z,95642.81
2019-03-03T00:08:35.883Z,95638.46
2019-03-03T00:11:23.753Z,95639.68
2019-03-03T00:14:12.150Z,95644.91
2019-03-03T00:17:00.763Z,95641.09
2019-03-03T00:19:49.074Z,95642.40
2019-03-03T00:22:37.922Z,95643.23
2019-03-03T00:25:26.749Z,95643.23
2019-03-03T00:28:14.946Z,95648.87
2019-03-03T00:31:03.175Z,95641.94
2019-03-03T00:33:51.794Z,95643.23
2019-03-03T00:37:18.382Z,95645.87
2019-03-03T00:40:24.186Z,95642.36
2019-03-03T00:43:21.788Z,95637.08
2019-03-03T00:46:42.114Z,95631.86
2019-03-03T00:50:01.310Z,95633.16
2019-03-03T00:53:11.258Z,95626.30
2019-03-03T00:56:33.985Z,95627.13
2019-03-03T00:59:27.585Z,95627.13
2019-03-03T01:02:38.671Z,95630.09
2019-03-03T01:05:46.739Z,95624.07
2019-03-03T01:08:59.889Z,95624.91
2019-03-03T01:12:01.065Z,95627.50
2019-03-03T01:15:12.299Z,95629.59
2019-03-03T01:18:23.348Z,95632.19
2019-03-03T01:21:31.195Z,95625.66
2019-03-03T01:24:37.562Z,95623.89
2019-03-03T01:27:27.341Z,95623.94
2019-03-03T01:30:15.989Z,95618.29
2019-03-03T01:33:04.442Z,95617.83
2019-03-03T01:35:52.900Z,95618.70
2019-03-03T01:38:41.481Z,95611.34
2019-03-03T01:41:29.803Z,95616.49
2019-03-03T01:44:18.511Z,95611.77
2019-03-03T01:47:07.816Z,95615.73
2019-03-03T01:49:56.730Z,95618.80
2019-03-03T01:52:45.264Z,95610.09
2019-03-03T01:55:33.618Z,95626.54
2019-03-03T01:58:22.053Z,95620.88
2019-03-03T02:01:10.767Z,95623.89
2019-03-03T02:03:59.587Z,95618.71
2019-03-03T02:06:48.219Z,95610.92
2019-03-03T02:09:37.306Z,95613.47
2019-03-03T02:12:26.241Z,95615.66
2019-03-03T02:15:15.857Z,95609.17
2019-03-03T02:18:04.086Z,95604.44
2019-03-03T02:20:52.645Z,95610.97
2019-03-03T02:23:40.541Z,95614.02
2019-03-03T02:26:28.841Z,95610.92
2019-03-03T02:29:17.134Z,95612.14
2019-03-03T02:32:06.906Z,95609.50
2019-03-03T02:34:55.026Z,95603.05
2019-03-03T02:37:43.825Z,95602.69
2019-03-03T02:40:32.207Z,95605.69
2019-03-03T02:43:20.873Z,95600.87
2019-03-03T02:46:09.155Z,95603.94
2019-03-03T02:48:57.060Z,95596.98
2019-03-03T02:51:45.466Z,95596.23
2019-03-03T02:54:34.180Z,95596.20
2019-03-03T02:57:22.479Z,95600.05
2019-03-03T03:00:15.186Z,95587.11
2019-03-03T03:03:05.046Z,95591.38
2019-03-03T03:06:08.034Z,95598.70
2019-03-03T03:09:17.792Z,95594.76
2019-03-03T03:12:31.054Z,95588.77
2019-03-03T03:15:44.790Z,95590.91
2019-03-03T03:19:10.116Z,95587.02
2019-03-03T03:22:17.676Z,95582.70
2019-03-03T03:25:25.024Z,95590.91
2019-03-03T03:28:32.012Z,95582.70
2019-03-03T03:31:29.997Z,95584.01
2019-03-03T03:34:41.140Z,95581.78
2019-03-03T03:38:06.678Z,95583.13
2019-03-03T03:41:13.633Z,95581.45
2019-03-03T03:44:20.296Z,95584.42
2019-03-03T03:47:34.360Z,95587.06
2019-03-03T03:50:34.215Z,95586.14
2019-03-03T03:53:40.547Z,95588.69
2019-03-03T03:56:42.117Z,95582.62
2019-03-03T03:59:49.960Z,95586.09
2019-03-03T04:02:59.739Z,95587.38
2019-03-03T04:06:01.796Z,95599.99
2019-03-03T04:09:02.087Z,95591.38
2019-03-03T04:12:00.341Z,95598.27
2019-03-03T04:15:07.797Z,95595.63
2019-03-03T04:18:04.630Z,95596.10
2019-03-03T04:21:24.643Z,95594.47
2019-03-03T04:24:44.417Z,95593.92
2019-03-03T04:27:39.320Z,95595.22
2019-03-03T04:30:47.213Z,95597.91
2019-03-03T04:33:57.885Z,95597.16
2019-03-03T04:37:04.654Z,95598.41
2019-03-03T04:39:59.877Z,95590.63
2019-03-03T04:42:54.905Z,95597.58
2019-03-03T04:46:08.415Z,95593.64
2019-03-03T04:49:25.482Z,95585.86
2019-03-03T04:52:29.433Z,95584.05
2019-03-03T04:55:36.449Z,95578.03
2019-03-03T04:58:44.151Z,95577.61
2019-03-03T05:01:51.930Z,95575.06
2019-03-03T05:05:08.626Z,95570.84
2019-03-03T05:08:15.809Z,95566.91
2019-03-03T05:11:29.763Z,95565.20
2019-03-03T05:14:24.357Z,95566.58
2019-03-03T05:17:20.158Z,95562.23
2019-03-03T05:20:09.154Z,95564.87
2019-03-03T05:22:58.076Z,95566.13
2019-03-03T05:25:46.732Z,95565.66
2019-03-03T05:28:35.665Z,95560.42
2019-03-03T05:31:24.750Z,95562.14
2019-03-03T05:34:13.311Z,95562.65
2019-03-03T05:37:02.127Z,95563.06
2019-03-03T05:39:50.922Z,95562.59
2019-03-03T05:42:39.169Z,95560.01
2019-03-03T05:45:28.325Z,95550.97
2019-03-03T05:48:16.763Z,95547.64
2019-03-03T05:51:05.177Z,95548.47
2019-03-03T05:53:53.509Z,95544.26
2019-03-03T05:56:41.768Z,95547.72
2019-03-03T05:59:30.352Z,95547.26
2019-03-03T06:02:19.225Z,95552.41
2019-03-03T06:05:07.640Z,95546.44
2019-03-03T06:07:57.841Z,95553.84
2019-03-03T06:10:50.338Z,95549.02
2019-03-03T06:13:38.833Z,95551.30
2019-03-03T06:16:27.910Z,95549.49
2019-03-03T06:19:16.669Z,95545.65
2019-03-03T06:22:05.705Z,95547.41
2019-03-03T06:24:55.744Z,95540.00
2019-03-03T06:27:44.089Z,95535.36
2019-03-03T06:30:32.267Z,95539.30
2019-03-03T06:33:21.310Z,95539.84
2019-03-03T06:36:10.169Z,95538.55
2019-03-03T06:38:58.478Z,95550.63
2019-03-03T06:41:46.568Z,95537.67
2019-03-03T06:44:35.241Z,95545.36
2019-03-03T06:47:24.408Z,95545.73
2019-03-03T06:50:13.786Z,95543.47
2019-03-03T06:53:02.466Z,95542.95
2019-03-03T06:55:50.768Z,95541.98
2019-03-03T06:58:41.249Z,95545.83
2019-03-03T07:01:29.535Z,95541.01
2019-03-03T07:04:18.313Z,95537.08
2019-03-03T07:07:07.102Z,95531.83
2019-03-03T07:09:56.126Z,95538.17
2019-03-03T07:12:45.068Z,95528.12
2019-03-03T07:15:33.764Z,95527.97
2019-03-03T07:18:22.198Z,95528.72
2019-03-03T07:21:10.663Z,95523.06
2019-03-03T07:23:59.526Z,95521.70
2019-03-03T07:26:48.089Z,95524.63
2019-03-03T07:29:37.226Z,95519.72
2019-03-03T07:32:25.770Z,95521.34
2019-03-03T07:35:13.932Z,95518.22
2019-03-03T07:38:02.201Z,95522.45
2019-03-03T07:40:50.743Z,95516.73
2019-03-03T07:43:39.234Z,95519.63
2019-03-03T07:46:27.826Z,95516.50
2019-03-03T07:49:16.166Z,95519.92
2019-03-03T07:52:05.290Z,95524.05
2019-03-03T07:54:53.926Z,95527.77
2019-03-03T07:57:42.729Z,95521.14
2019-03-03T08:00:31.362Z,95519.30
2019-03-03T08:03:20.444Z,95529.53
2019-03-03T08:06:09.628Z,95529.52
2019-03-03T08:08:57.910Z,95530.64
2019-03-03T08:11:46.685Z,95529.33
2019-03-03T08:14:35.804Z,95529.33
2019-03-03T08:17:25.192Z,95524.55
2019-03-03T08:20:14.542Z,95530.15
2019-03-03T08:23:03.416Z,95520.44
2019-03-03T08:25:51.304Z,95523.30
2019-03-03T08:28:41.236Z,95513.72
2019-03-03T08:31:29.918Z,95503.73
2019-03-03T08:34:18.175Z,95512.28
2019-03-03T08:37:06.524Z,95513.45
2019-03-03T08:39:55.144Z,95506.83
2019-03-03T08:43:11.601Z,95512.02
2019-03-03T08:46:14.906Z,95500.58
2019-03-03T08:49:28.458Z,95503.32
2019-03-03T08:52:22.325Z,95500.98
2019-03-03T08:55:29.503Z,95500.02
2019-03-03T08:58:25.658Z,95507.27
2019-03-03T09:01:49.161Z,95500.09
2019-03-03T09:04:52.025Z,95502.28
2019-03-03T09:07:58.095Z,95494.06
2019-03-03T09:11:04.900Z,95488.45
2019-03-03T09:14:24.329Z,95472.59
2019-03-03T09:17:44.110Z,95475.52
2019-03-03T09:20:51.891Z,95468.89
2019-03-03T09:23:51.637Z,95467.34
2019-03-03T09:27:10.689Z,95468.47
2019-03-03T09:30:17.845Z,95464.70
2019-03-03T09:33:23.968Z,95463.97
2019-03-03T09:36:44.046Z,95454.64
2019-03-03T09:39:43.860Z,95448.75
2019-03-03T09:42:44.292Z,95455.80
2019-03-03T09:45:50.721Z,95466.36
2019-03-03T09:48:55.702Z,95454.75
2019-03-03T09:52:20.482Z,95452.85
2019-03-03T09:55:45.777Z,95445.73
2019-03-03T09:58:52.319Z,95451.50
2019-03-03T10:01:59.577Z,95455.09
2019-03-03T10:05:01.842Z,95453.13
2019-03-03T10:08:18.758Z,95467.63
2019-03-03T10:11:25.579Z,95464.11
2019-03-03T10:14:32.562Z,95476.66
2019-03-03T10:17:42.960Z,95475.34
2019-03-03T10:20:49.023Z,95462.00
2019-03-03T10:23:59.916Z,95459.88
2019-03-03T10:27:06.854Z,95456.64
2019-03-03T10:30:20.038Z,95439.39
2019-03-03T10:33:33.801Z,95453.30
2019-03-03T10:36:40.507Z,95446.17
2019-03-03T10:39:38.367Z,95434.61
2019-03-03T10:42:36.095Z,95444.06
2019-03-03T10:45:42.479Z,95440.60
2019-03-03T10:48:52.264Z,95430.13
2019-03-03T10:52:03.361Z,95432.39
2019-03-03T10:54:58.095Z,95437.36
2019-03-03T10:57:58.153Z,95431.42
2019-03-03T11:01:19.079Z,95428.61
2019-03-03T11:04:41.948Z,95422.86
2019-03-03T11:07:55.945Z,95429.19
2019-03-03T11:11:08.898Z,95442.53
2019-03-03T11:14:18.212Z,95437.87
2019-03-03T11:17:18.895Z,95428.52
2019-03-03T11:20:25.840Z,95436.67
2019-03-03T11:23:23.683Z,95429.27
2019-03-03T11:26:33.473Z,95442.89
2019-03-03T11:29:50.561Z,95429.44
2019-03-03T11:33:06.752Z,95425.98
2019-03-03T11:36:16.780Z,95444.27
2019-03-03T11:39:25.030Z,95438.70
2019-03-03T11:42:17.993Z,95421.34
2019-03-03T11:45:32.026Z,95414.70
2019-03-03T11:48:26.528Z,95403.44
2019-03-03T11:51:44.005Z,95390.36
2019-03-03T11:54:41.647Z,95377.87
2019-03-03T11:57:39.304Z,95380.20
2019-03-03T12:00:39.117Z,95381.73
2019-03-03T12:03:56.350Z,95379.45
2019-03-03T12:07:07.952Z,95372.89
2019-03-03T12:10:10.196Z,95363.72
2019-03-03T12:13:17.898Z,95359.45
2019-03-03T12:16:32.254Z,95356.25
2019-03-03T12:19:44.966Z,95346.95
2019-03-03T12:22:59.015Z,95345.30
2019-03-03T12:25:53.812Z,95345.89
2019-03-03T12:29:00.917Z,95337.25
2019-03-03T12:32:06.176Z,95336.71
2019-03-03T12:35:09.985Z,95330.81
2019-03-03T12:38:10.158Z,95329.37
2019-03-03T12:41:10.625Z,95341.05
2019-03-03T12:44:17.236Z,95336.08
2019-03-03T12:47:22.544Z,95337.90
2019-03-03T12:50:28.612Z,95322.20
2019-03-03T12:53:26.967Z,95321.20
2019-03-03T12:56:33.026Z,95325.09
2019-03-03T12:59:41.048Z,95325.48
2019-03-03T13:03:03.868Z,95318.49
2019-03-03T13:06:11.462Z,95311.63
2019-03-03T13:09:25.374Z,95299.41
2019-03-03T13:12:33.006Z,95304.13
2019-03-03T13:15:50.371Z,95297.77
2019-03-03T13:19:12.992Z,95289.04
2019-03-03T13:22:17.443Z,95283.87
2019-03-03T13:25:34.683Z,95280.80
2019-03-03T13:28:41.722Z,95272.52
2019-03-03T13:31:49.072Z,95260.91
2019-03-03T13:34:44.995Z,95264.86
2019-03-03T13:38:10.895Z,95259.98
2019-03-03T13:41:22.231Z,95250.24
2019-03-03T13:44:10.507Z,95252.06
2019-03-03T13:46:59.499Z,95244.42
2019-03-03T13:49:48.211Z,95234.78
2019-03-03T13:52:37.486Z,95227.52
2019-03-03T13:55:26.642Z,95226.83
2019-03-03T13:58:15.167Z,95223.34
2019-03-03T14:01:03.557Z,95229.98
2019-03-03T14:03:52.209Z,95218.52
2019-03-03T14:06:40.763Z,95221.59
2019-03-03T14:09:29.423Z,95217.56
2019-03-03T14:12:18.231Z,95199.38
2019-03-03T14:15:09.588Z,95204.13
2019-03-03T14:17:58.522Z,95209.06
2019-03-03T14:20:47.335Z,95196.48
2019-03-03T14:23:36.447Z,95196.04
2019-03-03T14:26:25.339Z,95199.55
2019-03-03T14:29:13.928Z,95195.67
2019-03-03T14:32:02.644Z,95194.81
2019-03-03T14:34:51.609Z,95209.04
2019-03-03T14:37:40.584Z,95185.78
2019-03-03T14:40:29.791Z,95185.72
2019-03-03T14:43:18.528Z,95190.23
2019-03-03T14:46:07.564Z,95179.22
2019-03-03T14:48:56.116Z,95172.59
2019-03-03T14:51:44.942Z,95160.22
2019-03-03T14:54:33.905Z,95164.38
2019-03-03T14:57:22.739Z,95158.48
2019-03-03T15:00:20.204Z,95150.67
2019-03-03T15:03:09.282Z,95155.20
2019-03-03T15:05:57.859Z,95150.96
2019-03-03T15:08:46.535Z,95135.91
2019-03-03T15:11:35.307Z,95129.05
2019-03-03T15:14:23.626Z,95123.89
2019-03-03T15:17:12.095Z,95120.76
2019-03-03T15:20:00.536Z,95120.76
2019-03-03T15:22:48.843Z,95121.80
2019-03-03T15:25:37.724Z,95118.58
2019-03-03T15:28:26.043Z,95115.70
2019-03-03T15:31:14.878Z,95110.58
2019-03-03T15:34:03.326Z,95108.92
2019-03-03T15:36:51.907Z,95096.20
2019-03-03T15:39:40.783Z,95093.09
2019-03-03T15:42:28.806Z,95091.89
2019-03-03T15:45:18.914Z,95097.13
2019-03-03T15:48:07.188Z,95091.16
2019-03-03T15:50:55.801Z,95089.55
2019-03-03T15:53:44.097Z,95087.41
2019-03-03T15:56:32.551Z,95078.66
2019-03-03T15:59:21.101Z,95071.78
2019-03-03T16:02:10.367Z,95070.30
2019-03-03T16:04:58.759Z,95070.16
2019-03-03T16:07:47.213Z,95068.50
2019-03-03T16:10:35.830Z,95068.63
2019-03-03T16:13:24.780Z,95065.23
2019-03-03T16:16:13.689Z,95060.08
2019-03-03T16:19:02.326Z,95066.82
2019-03-03T16:21:50.971Z,95063.42
2019-03-03T16:24:39.430Z,95059.69
2019-03-03T16:27:27.565Z,95056.14
2019-03-03T16:30:18.117Z,95058.34
2019-03-03T16:33:06.729Z,95067.44
2019-03-03T16:35:55.442Z,95058.55
2019-03-03T16:38:43.533Z,95063.13
2019-03-03T16:41:31.876Z,95064.05
2019-03-03T16:44:20.250Z,95063.79
2019-03-03T16:47:08.199Z,95063.01
2019-03-03T16:49:56.725Z,95069.68
2019-03-03T16:52:45.166Z,95061.97
2019-03-03T16:55:33.527Z,95070.37
2019-03-03T16:58:21.552Z,95073.91
2019-03-03T17:01:09.991Z,95068.68
2019-03-03T17:03:58.766Z,95071.08
2019-03-03T17:06:47.196Z,95063.88
2019-03-03T17:09:36.077Z,95053.90
2019-03-03T17:12:25.228Z,95047.45
2019-03-03T17:15:16.203Z,95049.76
2019-03-03T17:18:04.931Z,95042.35
2019-03-03T17:20:53.647Z,95046.34
2019-03-03T17:23:42.805Z,95042.73
2019-03-03T17:26:32.065Z,95039.55
2019-03-03T17:29:20.610Z,95042.67
2019-03-03T17:32:09.590Z,95046.11
2019-03-03T17:34:58.904Z,95051.21
2019-03-03T17:37:47.222Z,95041.23
2019-03-03T17:40:36.048Z,95034.48
2019-03-03T17:43:24.968Z,95032.79
2019-03-03T17:46:13.613Z,95034.30
2019-03-03T17:49:02.646Z,95030.95
2019-03-03T17:51:50.830Z,95020.09
2019-03-03T17:54:40.079Z,95019.30
2019-03-03T17:57:28.659Z,95015.18
2019-03-03T18:00:20.412Z,95017.57
2019-03-03T18:03:08.290Z,95020.19
2019-03-03T18:05:56.841Z,95026.91
2019-03-03T18:08:45.348Z,95019.20
2019-03-03T18:11:34.318Z,95013.58
2019-03-03T18:14:24.449Z,95009.16
2019-03-03T18:17:12.962Z,95003.55
2019-03-03T18:20:02.347Z,95001.53
2019-03-03T18:22:51.552Z,94994.66
2019-03-03T18:25:39.791Z,94996.88
2019-03-03T18:28:28.692Z,94994.51
2019-03-03T18:31:17.399Z,94993.95
2019-03-03T18:34:06.006Z,94992.25
2019-03-03T18:36:55.681Z,94994.75
2019-03-03T18:39:44.972Z,94984.82
2019-03-03T18:42:33.814Z,94992.73
2019-03-03T18:45:23.525Z,94995.73
2019-03-03T18:48:13.967Z,94982.80
2019-03-03T18:51:02.687Z,94975.41
2019-03-03T18:53:51.424Z,94970.27
2019-03-03T18:56:40.102Z,94967.18
2019-03-03T18:59:28.634Z,94966.34
2019-03-03T19:02:17.554Z,94962.16
2019-03-03T19:05:07.651Z,94955.32
2019-03-03T19:07:57.037Z,94953.53
2019-03-03T19:10:45.631Z,94950.94
2019-03-03T19:13:35.616Z,94952.83
2019-03-03T19:16:26.072Z,94944.84
2019-03-03T19:19:15.010Z,94948.99
2019-03-03T19:22:03.834Z,94954.88
2019-03-03T19:24:53.187Z,94959.31
2019-03-03T19:27:42.182Z,94951.99
2019-03-03T19:30:31.331Z,94952.91
2019-03-03T19:33:27.511Z,94950.92
2019-03-03T19:36:16.507Z,94949.18
2019-03-03T19:39:06.048Z,94945.78
2019-03-03T19:41:54.139Z,94943.72
2019-03-03T19:44:43.043Z,94945.61
2019-03-03T19:47:31.753Z,94939.02
2019-03-03T19:50:20.569Z,94930.76
2019-03-03T19:53:09.426Z,94930.76
2019-03-03T19:55:58.262Z,94931.27
2019-03-03T19:58:46.935Z,94929.06
2019-03-03T20:01:35.866Z,94926.89
2019-03-03T20:04:24.419Z,94925.47
2019-03-03T20:07:13.008Z,94921.16
2019-03-03T20:10:01.577Z,94917.13
2019-03-03T20:12:50.876Z,94927.24
2019-03-03T20:15:39.978Z,94925.75
2019-03-03T20:18:29.152Z,94923.61
2019-03-03T20:21:18.495Z,94921.55
2019-03-03T20:24:07.491Z,94922.94
2019-03-03T20:26:56.973Z,94914.76
2019-03-03T20:29:45.653Z,94915.27
2019-03-03T20:32:36.242Z,94913.92
2019-03-03T20:35:25.377Z,94917.32
2019-03-03T20:38:14.267Z,94923.66
2019-03-03T20:41:03.531Z,94913.06
2019-03-03T20:43:52.759Z,94918.99
2019-03-03T20:46:42.177Z,94914.56
2019-03-03T20:49:30.593Z,94918.48
2019-03-03T20:52:19.428Z,94910.61
2019-03-03T20:55:10.084Z,94908.44
2019-03-03T20:57:58.452Z,94908.32
2019-03-03T21:00:47.118Z,94907.29
2019-03-03T21:03:35.813Z,94903.34
2019-03-03T21:06:24.853Z,94902.94
2019-03-03T21:09:13.706Z,94905.55
2019-03-03T21:12:02.199Z,94892.55
2019-03-03T21:14:50.884Z,94897.38
2019-03-03T21:17:40.178Z,94885.12
2019-03-03T21:20:29.270Z,94884.28
2019-03-03T21:23:17.803Z,94879.58
2019-03-03T21:26:07.033Z,94879.63
2019-03-03T21:28:55.865Z,94875.67
2019-03-03T21:31:44.536Z,94872.19
2019-03-03T21:34:33.646Z,94877.92
2019-03-03T21:37:22.482Z,94870.45
2019-03-03T21:40:12.874Z,94874.41
2019-03-03T21:43:01.695Z,94863.97
2019-03-03T21:45:50.547Z,94868.88
2019-03-03T21:48:39.615Z,94867.69
2019-03-03T21:51:28.794Z,94867.34
2019-03-03T21:54:17.862Z,94868.05
2019-03-03T21:57:06.106Z,94863.27
2019-03-03T21:59:54.436Z,94869.47
2019-03-03T22:02:42.684Z,94860.62
2019-03-03T22:05:31.827Z,94861.25
2019-03-03T22:08:20.004Z,94851.10
2019-03-03T22:11:08.880Z,94857.62
2019-03-03T22:13:57.413Z,94855.25
2019-03-03T22:16:46.384Z,94856.43
2019-03-03T22:19:34.806Z,94854.30
2019-03-03T22:22:23.224Z,94852.59
2019-03-03T22:25:12.093Z,94847.70
2019-03-03T22:28:00.894Z,94845.69
2019-03-03T22:30:49.854Z,94842.68
2019-03-03T22:33:38.791Z,94837.47
2019-03-03T22:36:27.514Z,94835.49
2019-03-03T22:39:15.904Z,94829.77
2019-03-03T22:42:04.768Z,94822.45
2019-03-03T22:44:53.041Z,94824.95
2019-03-03T22:47:41.820Z,94816.94
2019-03-03T22:50:30.516Z,94826.80
2019-03-03T22:53:19.140Z,94819.77
2019-03-03T22:56:07.782Z,94813.65
2019-03-03T22:58:57.132Z,94807.53
2019-03-03T23:01:46.891Z,94807.17
2019-03-03T23:05:05.596Z,94806.39
2019-03-03T23:08:24.044Z,94804.29
2019-03-03T23:11:52.749Z,94798.95
2019-03-03T23:15:21.124Z,94795.91
2019-03-03T23:18:38.391Z,94788.92
2019-03-03T23:21:43.738Z,94780.66
2019-03-03T23:25:17.475Z,94772.45
2019-03-03T23:28:07.471Z,94768.58
2019-03-03T23:30:57.533Z,94759.02
2019-03-03T23:33:45.919Z,94754.25
2019-03-03T23:36:34.388Z,94745.24
2019-03-03T23:39:22.692Z,94745.72
2019-03-03T23:42:11.408Z,94752.27
2019-03-03T23:45:00.738Z,94750.53
2019-03-03T23:47:49.037Z,94741.02
2019-03-03T23:50:37.450Z,94737.55
2019-03-03T23:53:26.591Z,94728.89
2019-03-03T23:56:14.632Z,94725.42
2019-03-03T23:59:04.142Z,94727.63
